createdAt,value
2022-11-30T08:10:17.838Z,8.35
2022-11-30T08:12:46.520Z,7.97
2022-11-30T08:15:22.366Z,8.35
2022-11-30T08:17:55.167Z,8.85
2022-11-30T08:22:51.838Z,9.32
2022-11-30T08:25:19.190Z,9.73
2022-11-30T08:27:46.543Z,9.73
2022-11-30T08:30:13.832Z,8.77
2022-11-30T08:32:41.301Z,8.68
2022-11-30T08:35:08.816Z,8.55
2022-11-30T08:37:38.967Z,10.77
2022-11-30T08:40:06.617Z,8.57
2022-11-30T08:42:34.105Z,9.48
2022-11-30T08:45:01.793Z,9.35
2022-11-30T08:47:30.644Z,8.65
2022-11-30T08:50:01.587Z,12.43
2022-11-30T08:52:28.915Z,11.65
2022-11-30T08:54:56.823Z,11.43
2022-11-30T08:57:24.185Z,11.10
2022-11-30T08:59:51.472Z,15.35
2022-11-30T09:02:19.925Z,10.80
2022-11-30T09:04:49.239Z,10.85
2022-11-30T09:07:16.792Z,11.32
2022-11-30T09:09:44.453Z,11.32
2022-11-30T09:12:11.733Z,11.68
2022-11-30T09:14:38.993Z,9.55
2022-11-30T09:17:06.403Z,9.15
2022-11-30T09:19:33.699Z,11.65
2022-11-30T09:22:01.033Z,12.38
2022-11-30T09:24:28.361Z,12.05
2022-11-30T09:26:57.521Z,11.60
2022-11-30T09:29:25.099Z,10.50
2022-11-30T09:31:59.681Z,13.75
2022-11-30T09:34:39.658Z,12.52
2022-11-30T09:37:07.092Z,14.55
2022-11-30T09:39:34.330Z,13.73
2022-11-30T09:42:14.377Z,13.02
2022-11-30T09:45:00.793Z,13.70
2022-11-30T09:47:48.778Z,12.27
2022-11-30T09:50:19.328Z,10.02
2022-11-30T09:52:52.074Z,12.93
2022-11-30T09:55:25.373Z,9.02
2022-11-30T09:57:55.052Z,10.80
2022-11-30T10:00:25.498Z,9.10
2022-11-30T10:02:54.038Z,11.07
2022-11-30T10:05:25.131Z,9.95
2022-11-30T10:10:34.043Z,9.68
2022-11-30T10:13:01.613Z,10.40
2022-11-30T10:15:55.936Z,9.50
2022-11-30T10:18:23.222Z,11.55
2022-11-30T10:21:02.080Z,14.68
2022-11-30T10:23:50.597Z,14.35
2022-11-30T10:26:20.623Z,8.95
2022-11-30T10:28:48.750Z,12.07
2022-11-30T10:31:18.799Z,11.75
2022-11-30T10:34:00.878Z,9.18
2022-11-30T10:36:28.140Z,12.90
2022-11-30T10:38:58.588Z,11.93
2022-11-30T10:41:29.236Z,13.15
2022-11-30T10:44:03.671Z,11.50
2022-11-30T10:46:40.001Z,12.27
2022-11-30T10:49:08.964Z,14.40
2022-11-30T10:51:40.047Z,12.48
2022-11-30T10:54:14.612Z,12.82
2022-11-30T10:56:41.995Z,13.27
2022-11-30T10:59:18.259Z,9.90
2022-11-30T11:01:47.135Z,14.02
2022-11-30T11:04:25.872Z,11.32
2022-11-30T11:07:08.057Z,12.65
2022-11-30T11:09:48.200Z,11.23
2022-11-30T11:12:31.083Z,11.38
2022-11-30T11:15:22.363Z,11.55
2022-11-30T11:17:50.091Z,13.85
2022-11-30T11:20:34.673Z,12.73
2022-11-30T11:23:03.031Z,10.55
2022-11-30T11:25:33.478Z,11.32
2022-11-30T11:28:22.955Z,11.65
2022-11-30T11:30:50.453Z,11.63
2022-11-30T11:33:31.260Z,12.82
2022-11-30T11:36:07.663Z,14.02
2022-11-30T11:38:47.296Z,14.52
2022-11-30T11:41:30.301Z,10.95
2022-11-30T11:44:03.976Z,11.43
2022-11-30T11:46:32.768Z,12.90
2022-11-30T11:49:02.451Z,12.18
2022-11-30T11:51:37.337Z,11.10
2022-11-30T11:54:40.265Z,14.55
2022-11-30T12:14:09.550Z,23.65
2022-11-30T12:16:43.565Z,14.65
2022-11-30T12:19:12.255Z,15.35
2022-11-30T12:21:58.798Z,20.92
2022-11-30T12:24:45.111Z,18.45
2022-11-30T12:27:26.750Z,16.08
2022-11-30T12:30:00.476Z,15.38
2022-11-30T12:32:41.526Z,15.00
2022-11-30T12:35:14.824Z,12.63
2022-11-30T12:38:06.542Z,12.65
2022-11-30T12:40:38.419Z,11.98
2022-11-30T12:43:22.676Z,13.50
2022-11-30T12:45:54.167Z,12.23
2022-11-30T12:48:39.028Z,14.20
2022-11-30T12:51:18.092Z,10.60
2022-11-30T12:54:08.606Z,14.80
2022-11-30T12:56:44.280Z,14.23
2022-11-30T12:59:13.263Z,13.90
2022-11-30T13:01:43.721Z,12.70
2022-11-30T13:04:27.336Z,10.88
2022-11-30T13:07:02.101Z,11.63
2022-11-30T13:09:32.622Z,14.07
2022-11-30T13:12:06.222Z,15.95
2022-11-30T13:14:40.376Z,15.35
2022-11-30T13:17:14.594Z,11.55
2022-11-30T13:19:57.710Z,11.95
2022-11-30T13:22:35.437Z,12.48
2022-11-30T13:25:59.837Z,12.32
2022-11-30T13:28:25.141Z,14.70
2022-11-30T13:30:57.328Z,9.48
2022-11-30T13:33:46.009Z,13.05
2022-11-30T13:36:25.533Z,13.50
2022-11-30T13:39:14.618Z,11.05
2022-11-30T13:41:43.678Z,10.98
2022-11-30T13:44:30.453Z,10.32
2022-11-30T13:49:41.775Z,12.00
2022-11-30T13:52:22.746Z,10.65
2022-11-30T13:54:53.898Z,13.25
2022-11-30T13:57:33.185Z,13.80
2022-11-30T14:00:01.505Z,11.52
2022-11-30T14:02:42.099Z,12.77
2022-11-30T14:05:21.460Z,14.02
2022-11-30T14:07:57.505Z,12.38
2022-11-30T14:10:32.527Z,15.27
2022-11-30T14:13:06.048Z,14.93
2022-11-30T14:15:39.506Z,14.45
2022-11-30T14:18:09.518Z,13.15
2022-11-30T14:20:54.338Z,15.10
2022-11-30T14:23:32.601Z,14.20
2022-11-30T14:26:07.560Z,14.10
2022-11-30T14:28:40.853Z,12.95
2022-11-30T14:31:09.533Z,13.45
2022-11-30T14:33:46.233Z,15.13
2022-11-30T14:36:13.900Z,13.10
2022-11-30T14:38:42.455Z,13.15
2022-11-30T14:44:19.180Z,13.10
2022-11-30T14:46:46.559Z,12.48
2022-11-30T14:49:21.347Z,13.70
2022-11-30T14:52:08.953Z,13.75
2022-11-30T14:54:43.428Z,13.43
2022-11-30T14:57:30.701Z,17.90
2022-11-30T14:59:58.129Z,19.92
2022-11-30T15:02:25.885Z,17.75
2022-11-30T15:04:54.482Z,15.45
2022-11-30T15:07:23.080Z,13.75
2022-11-30T15:09:54.720Z,14.82
2022-11-30T15:12:23.887Z,15.38
2022-11-30T15:15:09.119Z,12.45
2022-11-30T15:17:50.696Z,12.93
2022-11-30T15:20:21.346Z,14.65
2022-11-30T15:22:51.124Z,14.65
2022-11-30T15:25:18.938Z,13.05
2022-11-30T15:27:46.401Z,15.05
2022-11-30T15:30:14.831Z,15.32
2022-11-30T15:32:44.496Z,18.52
2022-11-30T15:35:18.506Z,15.10
2022-11-30T15:37:54.411Z,16.58
2022-11-30T15:41:02.929Z,17.00
2022-11-30T15:43:35.644Z,16.08
2022-11-30T15:46:03.195Z,15.70
2022-11-30T15:48:40.421Z,15.48
2022-11-30T15:51:24.201Z,15.00
2022-11-30T15:53:53.238Z,17.85
2022-11-30T15:56:26.783Z,16.30
2022-11-30T15:59:18.697Z,16.23
2022-11-30T16:02:02.827Z,15.50
2022-11-30T16:04:52.980Z,17.60
2022-11-30T16:07:20.421Z,16.63
2022-11-30T16:09:48.215Z,13.07
2022-11-30T16:12:27.367Z,14.02
2022-11-30T16:14:54.728Z,14.07
2022-11-30T16:17:22.405Z,13.82
2022-11-30T16:19:50.031Z,14.77
2022-11-30T16:22:20.370Z,12.98
2022-11-30T16:24:47.715Z,14.00
2022-11-30T16:27:18.977Z,13.95
2022-11-30T16:29:52.391Z,17.48
2022-11-30T16:32:20.443Z,16.25
2022-11-30T16:34:48.725Z,15.07
2022-11-30T16:37:16.044Z,13.38
2022-11-30T16:39:43.452Z,14.32
2022-11-30T16:42:12.837Z,16.35
2022-11-30T16:44:40.208Z,18.70
2022-11-30T16:47:07.580Z,13.57
2022-11-30T16:49:34.958Z,16.42
2022-11-30T16:52:03.672Z,15.18
2022-11-30T16:54:31.291Z,13.32
2022-11-30T16:56:58.914Z,12.07
2022-11-30T16:59:26.161Z,12.35
2022-11-30T17:01:53.912Z,13.75
2022-11-30T17:04:26.424Z,14.30
2022-11-30T17:07:00.585Z,13.82
2022-11-30T17:09:30.510Z,15.13
2022-11-30T17:11:58.206Z,14.35
2022-11-30T17:14:25.516Z,16.38
2022-11-30T17:16:52.940Z,14.57
2022-11-30T17:19:20.644Z,13.95
2022-11-30T17:21:50.024Z,14.00
2022-11-30T17:24:17.348Z,13.50
2022-11-30T17:26:44.720Z,10.68
2022-11-30T17:29:12.021Z,13.05
2022-11-30T17:31:39.332Z,12.13
2022-11-30T17:34:08.680Z,12.50
2022-11-30T17:36:36.121Z,13.45
2022-11-30T17:39:09.662Z,13.40
2022-11-30T17:41:37.082Z,13.25
2022-11-30T17:44:04.392Z,11.48
2022-11-30T17:46:31.744Z,14.23
2022-11-30T17:48:59.107Z,12.88
2022-11-30T17:51:29.361Z,16.45
2022-11-30T17:53:56.775Z,12.43
2022-11-30T17:56:24.019Z,11.98
2022-11-30T17:58:51.283Z,14.10
2022-11-30T18:01:22.945Z,15.20
2022-11-30T18:03:51.003Z,15.40
2022-11-30T18:06:18.881Z,12.32
2022-11-30T18:08:46.240Z,13.82
2022-11-30T18:11:21.068Z,13.07
2022-11-30T18:13:49.986Z,12.48
2022-11-30T18:16:20.799Z,14.85
2022-11-30T18:18:48.962Z,13.63
2022-11-30T18:21:18.281Z,15.25
2022-11-30T18:23:45.716Z,13.30
2022-11-30T18:26:16.453Z,12.68
2022-11-30T18:28:44.195Z,11.93
2022-11-30T18:31:11.811Z,12.52
2022-11-30T18:33:51.464Z,12.65
2022-11-30T18:36:52.999Z,11.35
2022-11-30T18:39:20.476Z,12.88
2022-11-30T18:48:01.118Z,13.20
2022-11-30T18:50:31.690Z,13.38
2022-11-30T18:52:59.226Z,13.90
2022-11-30T18:55:29.327Z,14.40
2022-11-30T18:58:01.210Z,13.23
2022-11-30T19:00:29.219Z,13.80
2022-11-30T19:02:56.698Z,11.40
2022-11-30T19:05:34.853Z,14.57
2022-11-30T19:08:04.634Z,12.25
2022-11-30T19:10:38.714Z,13.68
2022-11-30T19:13:06.236Z,13.80
2022-11-30T19:15:40.230Z,13.75
2022-11-30T19:18:07.914Z,12.10
2022-11-30T19:20:39.443Z,13.88
2022-11-30T19:23:06.963Z,11.98
2022-11-30T19:25:34.251Z,12.90
2022-11-30T19:28:01.578Z,11.23
2022-11-30T19:30:28.982Z,11.20
2022-11-30T19:32:56.300Z,11.70
2022-11-30T19:35:25.132Z,12.65
2022-11-30T19:37:52.902Z,11.52
2022-11-30T19:40:20.162Z,13.80
2022-11-30T19:42:47.454Z,10.55
2022-11-30T19:45:17.448Z,10.93
2022-11-30T19:47:44.739Z,13.05
2022-11-30T19:50:12.416Z,12.63
2022-11-30T19:52:39.808Z,10.48
2022-11-30T19:55:07.536Z,10.55
2022-11-30T19:57:36.012Z,12.15
2022-11-30T20:00:06.132Z,12.32
2022-11-30T20:02:34.211Z,11.63
2022-11-30T20:05:02.028Z,12.27
2022-11-30T20:07:29.393Z,10.80
2022-11-30T20:09:56.696Z,11.90
2022-11-30T20:12:24.007Z,11.70
2022-11-30T20:14:52.272Z,11.65
2022-11-30T20:17:20.532Z,11.82
2022-11-30T20:19:47.924Z,11.70
2022-11-30T20:22:15.244Z,13.27
2022-11-30T20:24:42.592Z,12.77
2022-11-30T20:27:09.875Z,10.90
2022-11-30T20:29:37.246Z,12.95
2022-11-30T20:32:04.585Z,13.38
2022-11-30T20:34:35.208Z,10.60
2022-11-30T20:37:03.213Z,10.82
2022-11-30T20:39:30.463Z,10.85
2022-11-30T20:41:57.776Z,11.40
2022-11-30T20:44:25.051Z,13.73
2022-11-30T20:46:52.410Z,10.43
2022-11-30T20:49:21.274Z,11.40
2022-11-30T20:51:49.173Z,11.65
2022-11-30T20:54:17.206Z,12.02
2022-11-30T20:56:44.538Z,9.95
2022-11-30T20:59:16.477Z,9.65
2022-11-30T21:01:45.361Z,10.02
2022-11-30T21:04:12.999Z,12.52
2022-11-30T21:06:45.369Z,12.90
2022-11-30T21:09:16.650Z,10.57
2022-11-30T21:11:44.015Z,11.38
2022-11-30T21:14:11.769Z,12.20
2022-11-30T21:16:39.148Z,10.60
2022-11-30T21:19:10.853Z,9.88
2022-11-30T21:21:38.302Z,12.10
2022-11-30T21:24:09.124Z,10.20
2022-11-30T21:26:40.727Z,9.68
2022-11-30T21:29:10.523Z,11.45
2022-11-30T21:31:38.127Z,13.07
2022-11-30T21:34:05.666Z,9.68
2022-11-30T21:36:33.321Z,12.65
2022-11-30T21:39:06.036Z,10.75
2022-11-30T21:41:37.979Z,11.25
2022-11-30T21:44:05.730Z,12.13
2022-11-30T21:46:33.351Z,11.85
2022-11-30T21:49:01.240Z,10.90
2022-11-30T21:51:29.667Z,11.65
2022-11-30T21:53:58.230Z,12.98
2022-11-30T21:56:27.407Z,10.15
2022-11-30T21:58:54.759Z,10.85
2022-11-30T22:01:22.198Z,9.77
2022-11-30T22:03:49.987Z,9.05
2022-11-30T22:06:18.584Z,11.48
2022-11-30T22:08:46.278Z,9.85
2022-11-30T22:11:14.966Z,10.43
2022-11-30T22:13:42.798Z,7.60
2022-11-30T22:16:14.420Z,7.85
2022-11-30T22:18:42.188Z,10.32
2022-11-30T22:21:19.810Z,10.23
2022-11-30T22:23:49.269Z,8.52
2022-11-30T22:26:16.612Z,9.38
2022-11-30T22:28:44.853Z,11.23
2022-11-30T22:31:13.141Z,7.22
2022-11-30T22:33:44.608Z,8.82
2022-11-30T22:36:15.959Z,7.80
2022-11-30T22:38:43.830Z,9.02
2022-11-30T22:41:12.206Z,9.38
2022-11-30T22:43:39.651Z,9.35
2022-11-30T22:46:14.572Z,9.93
2022-11-30T22:48:42.417Z,9.45
2022-11-30T22:51:20.078Z,7.75
2022-11-30T22:53:48.077Z,7.97
2022-11-30T22:56:16.954Z,7.90
2022-11-30T22:58:44.507Z,9.07
2022-11-30T23:01:15.295Z,11.18
2022-11-30T23:03:43.436Z,9.80
2022-11-30T23:06:11.367Z,9.88
2022-11-30T23:08:39.164Z,10.43
2022-11-30T23:11:13.086Z,9.52
2022-11-30T23:13:41.384Z,7.57
2022-11-30T23:16:09.421Z,8.70
2022-11-30T23:18:41.293Z,11.05
2022-11-30T23:21:10.921Z,9.15
2022-11-30T23:23:38.183Z,7.75
2022-11-30T23:26:25.780Z,11.00
2022-11-30T23:28:53.809Z,9.50
2022-11-30T23:31:33.915Z,8.95
2022-11-30T23:34:03.889Z,10.68
2022-11-30T23:36:31.219Z,8.50
2022-11-30T23:38:59.969Z,9.52
2022-11-30T23:41:27.271Z,8.02
2022-11-30T23:43:54.592Z,9.60
2022-11-30T23:46:22.110Z,9.70
2022-11-30T23:48:49.531Z,8.10
2022-11-30T23:51:16.777Z,12.52
2022-11-30T23:53:44.083Z,8.55
2022-11-30T23:56:13.886Z,7.63
2022-11-30T23:58:41.395Z,8.75
